Time;durP1;ratioP1;P1;durP2;ratioP2;P2;SDS_P1;SDS_P2;PMS_P1;PMS_P2;Temp;Humidity;BMP_temperature;BMP_pressure;BME280_temperature;BME280_humidity;BME280_pressure;Samples;Min_cycle;Max_cycle;Signal;HPM_P1;HPM_P2
2023/01/14 00:01:13;;;;;;;20.23;5.73;;;7.20;1.00;;;;;;5139786;27;20461;-65
2023/01/14 00:03:40;;;;;;;29.07;6.77;;;7.20;1.00;;;;;;5140607;27;20898;-65
2023/01/14 00:06:07;;;;;;;18.40;5.10;;;7.20;1.00;;;;;;5141167;27;20465;-65
2023/01/14 00:08:35;;;;;;;29.80;6.87;;;7.20;1.00;;;;;;5126213;27;20493;-65
2023/01/14 00:11:06;;;;;;;25.90;6.77;;;7.20;1.00;;;;;;5120336;28;20748;-65
2023/01/14 00:13:34;;;;;;;22.90;5.70;;;7.20;1.00;;;;;;5120087;28;20463;-65
2023/01/14 00:16:02;;;;;;;29.00;6.57;;;7.20;1.00;;;;;;5120001;28;20463;-65
2023/01/14 00:18:32;;;;;;;28.30;6.90;;;7.10;1.00;;;;;;5127946;27;20461;-65
2023/01/14 00:21:01;;;;;;;27.37;6.67;;;7.10;1.00;;;;;;5140401;27;20433;-65
2023/01/14 00:23:30;;;;;;;21.47;5.30;;;7.10;1.00;;;;;;5139935;27;21030;-65
2023/01/14 00:26:07;;;;;;;20.77;6.80;;;7.10;1.00;;;;;;5140133;27;20462;-65
2023/01/14 00:28:34;;;;;;;23.50;6.63;;;7.10;1.00;;;;;;5134179;27;20440;-65
2023/01/14 00:31:06;;;;;;;16.50;6.10;;;7.10;1.00;;;;;;5118605;28;20585;-65
2023/01/14 00:33:34;;;;;;;18.17;5.83;;;7.10;1.00;;;;;;5119467;28;20512;-65
2023/01/14 00:36:01;;;;;;;24.77;6.67;;;7.10;1.00;;;;;;5119682;28;20756;-65
2023/01/14 00:38:28;;;;;;;23.07;6.43;;;7.10;1.00;;;;;;5119616;27;20462;-65
2023/01/14 00:41:04;;;;;;;21.87;6.73;;;7.10;1.00;;;;;;5139949;27;20433;-65
2023/01/14 00:43:32;;;;;;;26.37;8.30;;;7.00;1.00;;;;;;5138871;27;20480;-65
2023/01/14 00:45:59;;;;;;;23.17;6.33;;;7.00;1.00;;;;;;5139986;27;20557;-65
2023/01/14 00:48:26;;;;;;;27.57;5.97;;;7.00;1.00;;;;;;5140024;27;20875;-65
2023/01/14 00:50:54;;;;;;;25.37;5.63;;;7.00;1.00;;;;;;5122571;27;20441;-65
2023/01/14 00:53:21;;;;;;;20.60;5.50;;;7.00;1.00;;;;;;5119030;27;20503;-65
2023/01/14 00:55:48;;;;;;;24.77;6.03;;;7.00;1.00;;;;;;5119522;28;20558;-66
2023/01/14 00:58:15;;;;;;;33.43;6.87;;;7.00;1.00;;;;;;5119465;28;20459;-65
2023/01/14 01:00:44;;;;;;;21.77;6.40;;;7.00;1.00;;;;;;5129046;27;20867;-64
2023/01/14 01:03:12;;;;;;;18.27;5.23;;;6.90;1.00;;;;;;5139540;27;20481;-65
2023/01/14 01:05:40;;;;;;;16.43;4.67;;;7.00;1.00;;;;;;5139101;27;20478;-65
2023/01/14 01:08:10;;;;;;;24.10;6.50;;;7.00;1.00;;;;;;5139583;27;20553;-64
2023/01/14 01:10:37;;;;;;;19.93;5.33;;;7.00;1.00;;;;;;5131993;27;20487;-65
2023/01/14 01:13:05;;;;;;;31.70;5.77;;;7.00;1.00;;;;;;5117586;28;20818;-65
2023/01/14 01:15:34;;;;;;;25.23;6.03;;;7.00;1.00;;;;;;5124110;27;20455;-65
2023/01/14 01:18:03;;;;;;;19.50;5.77;;;7.00;1.00;;;;;;5138657;27;20884;-65
2023/01/14 01:20:31;;;;;;;18.60;5.90;;;7.00;1.00;;;;;;5137950;27;20868;-66
2023/01/14 01:22:58;;;;;;;24.07;5.10;;;7.00;1.00;;;;;;5137939;27;20459;-65
2023/01/14 01:25:26;;;;;;;20.10;5.40;;;7.00;1.00;;;;;;5138453;27;20448;-66
2023/01/14 01:27:55;;;;;;;20.40;5.70;;;7.00;1.00;;;;;;5139222;27;20532;-65
2023/01/14 01:30:23;;;;;;;19.60;4.47;;;6.90;1.00;;;;;;5137508;27;20502;-65
2023/01/14 01:32:50;;;;;;;18.70;5.67;;;6.90;1.00;;;;;;5120232;27;20438;-64
2023/01/14 01:35:19;;;;;;;23.50;9.87;;;6.90;1.00;;;;;;5118029;28;20905;-65
2023/01/14 01:37:46;;;;;;;26.90;6.77;;;6.90;1.00;;;;;;5116979;28;20468;-66
2023/01/14 01:40:14;;;;;;;25.63;6.30;;;6.90;1.00;;;;;;5118296;28;20447;-66
2023/01/14 01:42:54;;;;;;;18.67;5.60;;;6.90;1.00;;;;;;5129456;27;20458;-66
2023/01/14 01:45:38;;;;;;;18.10;5.23;;;6.90;1.00;;;;;;5137494;27;20466;-65
2023/01/14 01:48:10;;;;;;;25.63;6.10;;;6.90;1.00;;;;;;5139268;27;20493;-65
2023/01/14 01:50:38;;;;;;;26.80;7.73;;;6.90;1.00;;;;;;5137946;27;20500;-66
2023/01/14 01:53:08;;;;;;;24.23;5.67;;;6.90;1.00;;;;;;5123926;27;20464;-65
2023/01/14 01:55:38;;;;;;;18.93;5.97;;;6.90;1.00;;;;;;5115708;28;20459;-66
2023/01/14 01:58:05;;;;;;;23.50;5.60;;;6.90;1.00;;;;;;5116274;28;20471;-65
2023/01/14 02:00:32;;;;;;;19.67;5.63;;;6.90;1.00;;;;;;5115961;28;20462;-65
2023/01/14 02:03:02;;;;;;;23.40;5.00;;;6.90;1.00;;;;;;5123250;27;20717;-65
2023/01/14 02:05:30;;;;;;;21.53;5.67;;;6.90;1.00;;;;;;5137618;27;20469;-65
2023/01/14 02:08:00;;;;;;;17.00;5.03;;;6.90;1.00;;;;;;5138244;27;20463;-65
2023/01/14 02:10:39;;;;;;;21.80;6.03;;;6.80;1.00;;;;;;5138481;27;20457;-65
2023/01/14 02:13:24;;;;;;;18.30;4.97;;;6.90;1.00;;;;;;5133074;27;20532;-65
2023/01/14 02:16:02;;;;;;;29.03;6.70;;;6.90;1.00;;;;;;5117871;28;20468;-65
2023/01/14 02:18:41;;;;;;;19.40;5.13;;;6.90;1.00;;;;;;5117980;28;20479;-65
2023/01/14 02:21:17;;;;;;;21.63;4.57;;;6.80;1.00;;;;;;5117997;28;20455;-65
2023/01/14 02:24:40;;;;;;;25.83;5.83;;;6.80;1.00;;;;;;5122986;28;20458;-65
2023/01/14 02:27:38;;;;;;;19.20;5.13;;;6.80;1.00;;;;;;5137691;28;20429;-64
2023/01/14 02:30:22;;;;;;;24.00;6.00;;;6.90;1.00;;;;;;5136614;28;20494;-65
2023/01/14 02:32:55;;;;;;;21.27;5.73;;;6.90;1.00;;;;;;5136693;28;20463;-65
2023/01/14 02:35:35;;;;;;;12.23;3.90;;;6.90;1.00;;;;;;5131114;28;20483;-64
2023/01/14 02:38:18;;;;;;;26.20;5.63;;;6.90;1.00;;;;;;5136566;28;20462;-65
2023/01/14 02:40:50;;;;;;;18.37;4.93;;;6.90;1.00;;;;;;5136488;28;20885;-65
2023/01/14 02:46:14;;;;;;;24.27;5.90;;;6.90;1.00;;;;;;5128731;28;20528;-65
2023/01/14 02:48:44;;;;;;;23.13;5.10;;;6.90;1.00;;;;;;5128181;28;20465;-65
2023/01/14 02:51:12;;;;;;;22.47;5.73;;;7.00;1.00;;;;;;5137655;28;20497;-65
2023/01/14 02:53:39;;;;;;;20.03;6.40;;;7.00;1.00;;;;;;5136243;28;20954;-65
2023/01/14 02:56:07;;;;;;;16.03;5.37;;;7.00;1.00;;;;;;5117503;28;20438;-65
2023/01/14 02:58:46;;;;;;;19.50;5.30;;;7.00;1.00;;;;;;5116675;28;20533;-65
2023/01/14 03:01:46;;;;;;;19.17;5.80;;;7.00;1.00;;;;;;5117295;28;20546;-65
2023/01/14 03:04:31;;;;;;;23.10;5.40;;;7.00;1.00;;;;;;5104726;28;20449;-65
2023/01/14 03:07:10;;;;;;;15.40;5.30;;;7.00;1.00;;;;;;5138655;27;20465;-65
2023/01/14 03:09:47;;;;;;;25.20;5.60;;;6.90;1.00;;;;;;5140246;27;20477;-65
2023/01/14 03:12:19;;;;;;;35.37;5.37;;;7.00;1.00;;;;;;5142170;27;20469;-65
2023/01/14 03:14:49;;;;;;;26.70;6.20;;;7.00;1.00;;;;;;5137806;27;20455;-65
2023/01/14 03:17:24;;;;;;;19.67;5.50;;;7.00;1.00;;;;;;5120979;27;20922;-65
2023/01/14 03:19:58;;;;;;;20.33;6.13;;;6.90;1.00;;;;;;5121228;28;20459;-65
2023/01/14 03:22:28;;;;;;;17.07;4.90;;;6.90;1.00;;;;;;5121375;28;20433;-65
2023/01/14 03:24:58;;;;;;;21.13;6.17;;;6.80;1.00;;;;;;5120808;27;20469;-65
2023/01/14 03:27:31;;;;;;;17.13;5.33;;;6.80;1.00;;;;;;5141285;27;20433;-65
2023/01/14 03:30:03;;;;;;;27.83;5.17;;;6.90;1.00;;;;;;5119897;28;20780;-66
2023/01/14 03:32:37;;;;;;;19.47;5.70;;;6.80;1.00;;;;;;5120259;28;20455;-64
2023/01/14 03:35:08;;;;;;;24.90;6.40;;;6.70;1.00;;;;;;5121085;28;20459;-65
2023/01/14 03:37:39;;;;;;;23.00;5.50;;;6.70;1.00;;;;;;5139477;27;20458;-65
2023/01/14 03:40:11;;;;;;;16.63;5.93;;;6.60;1.00;;;;;;5141842;27;20823;-65
2023/01/14 03:42:42;;;;;;;19.97;5.80;;;6.60;1.00;;;;;;5140794;27;20458;-65
2023/01/14 03:45:15;;;;;;;17.90;5.23;;;6.60;1.00;;;;;;5140891;27;20440;-65
2023/01/14 03:47:45;;;;;;;16.33;6.20;;;6.50;1.00;;;;;;5124280;27;20459;-65
2023/01/14 03:50:16;;;;;;;23.47;6.10;;;6.50;1.00;;;;;;5120616;27;20477;-65
2023/01/14 03:53:04;;;;;;;17.57;5.03;;;6.50;1.00;;;;;;5120655;28;20463;-65
2023/01/14 03:55:39;;;;;;;14.60;5.77;;;6.40;1.00;;;;;;5120529;28;20477;-65
2023/01/14 03:58:14;;;;;;;17.97;5.33;;;6.40;1.00;;;;;;5135998;27;20462;-65
2023/01/14 04:00:46;;;;;;;23.97;5.40;;;6.40;1.00;;;;;;5140601;27;20428;-65
2023/01/14 04:03:16;;;;;;;25.13;5.53;;;6.40;14.00;;;;;;5140671;27;20768;-65
2023/01/14 04:05:43;;;;;;;21.70;5.87;;;6.40;32.20;;;;;;5140903;27;20880;-65
2023/01/14 04:08:11;;;;;;;19.30;5.40;;;6.50;15.30;;;;;;5127280;27;20510;-65
2023/01/14 04:10:38;;;;;;;17.43;5.00;;;6.50;1.00;;;;;;5119635;27;20503;-66
2023/01/14 04:15:50;;;;;;;21.00;4.97;;;6.50;1.00;;;;;;5119869;28;20910;-65
2023/01/14 04:18:18;;;;;;;21.00;4.97;;;6.50;1.00;;;;;;5129173;27;20429;-65
2023/01/14 04:20:45;;;;;;;19.10;5.80;;;6.50;1.00;;;;;;5140604;27;20736;-65
2023/01/14 04:23:12;;;;;;;17.73;5.20;;;6.60;1.00;;;;;;5139806;27;20464;-65
2023/01/14 04:25:39;;;;;;;19.47;5.13;;;6.60;1.00;;;;;;5140371;27;20894;-65
2023/01/14 04:28:06;;;;;;;20.07;5.77;;;6.50;1.00;;;;;;5135091;27;20441;-65
2023/01/14 04:30:34;;;;;;;16.33;4.77;;;6.50;1.00;;;;;;5118348;28;20474;-65
2023/01/14 04:33:01;;;;;;;14.40;4.57;;;6.50;1.00;;;;;;5119184;28;20459;-65
2023/01/14 04:35:29;;;;;;;18.30;4.33;;;6.50;1.00;;;;;;5118736;28;20486;-65
2023/01/14 04:37:57;;;;;;;18.10;4.90;;;6.40;1.00;;;;;;5118226;28;20437;-65
2023/01/14 04:40:24;;;;;;;15.87;4.60;;;6.40;1.00;;;;;;5138997;27;20466;-64
2023/01/14 04:42:50;;;;;;;12.00;4.63;;;6.50;1.00;;;;;;5139763;27;20444;-64
2023/01/14 04:45:18;;;;;;;16.60;5.23;;;6.40;1.00;;;;;;5140552;27;20458;-65
2023/01/14 04:47:45;;;;;;;17.07;5.10;;;6.40;1.00;;;;;;5140117;27;20437;-64
2023/01/14 04:50:33;;;;;;;15.00;5.27;;;6.40;1.00;;;;;;5125849;27;20490;-65
2023/01/14 04:53:06;;;;;;;14.30;5.00;;;6.40;1.00;;;;;;5119470;28;20517;-65
2023/01/14 04:55:38;;;;;;;16.93;5.00;;;6.40;1.00;;;;;;5119300;28;20459;-64
2023/01/14 04:58:06;;;;;;;19.67;4.80;;;6.40;1.00;;;;;;5119406;27;20761;-65
2023/01/14 05:00:33;;;;;;;20.07;5.47;;;6.30;1.00;;;;;;5131043;27;20454;-64
2023/01/14 05:03:03;;;;;;;15.73;4.27;;;6.40;1.00;;;;;;5139267;27;20485;-65
2023/01/14 05:05:30;;;;;;;19.30;6.80;;;6.30;1.00;;;;;;5139433;27;20528;-65
2023/01/14 05:07:57;;;;;;;18.37;4.90;;;6.30;1.00;;;;;;5139617;27;20481;-65
2023/01/14 05:10:26;;;;;;;18.40;5.00;;;6.30;1.00;;;;;;5131191;27;20483;-65
2023/01/14 05:13:00;;;;;;;13.90;4.50;;;6.30;1.00;;;;;;5118049;28;20554;-65
2023/01/14 05:15:30;;;;;;;25.10;5.63;;;6.30;1.00;;;;;;5119809;27;20516;-64
2023/01/14 05:17:58;;;;;;;20.80;5.53;;;6.20;1.00;;;;;;5118948;28;20463;-64
2023/01/14 05:20:26;;;;;;;20.20;4.17;;;6.20;1.00;;;;;;5119007;28;20452;-65
2023/01/14 05:22:59;;;;;;;12.53;4.63;;;6.20;1.00;;;;;;5118396;28;20459;-64
2023/01/14 05:25:28;;;;;;;21.03;5.23;;;6.20;1.00;;;;;;5118601;27;20739;-64
2023/01/14 05:27:58;;;;;;;15.33;4.00;;;6.20;1.00;;;;;;5118680;28;20467;-65
2023/01/14 05:30:25;;;;;;;13.90;4.50;;;6.20;1.00;;;;;;5117723;27;20495;-65
2023/01/14 05:32:53;;;;;;;21.13;4.63;;;6.20;1.00;;;;;;5138953;27;20466;-63
2023/01/14 05:35:20;;;;;;;16.13;4.53;;;6.20;1.00;;;;;;5139218;27;20458;-64
2023/01/14 05:37:47;;;;;;;14.90;4.27;;;6.20;1.00;;;;;;5138987;27;20430;-64
2023/01/14 05:40:14;;;;;;;12.60;4.33;;;6.20;1.00;;;;;;5139022;27;20746;-64
2023/01/14 05:45:41;;;;;;;19.40;4.83;;;6.10;1.00;;;;;;5118108;27;20442;-63
2023/01/14 05:48:09;;;;;;;24.03;4.73;;;6.10;1.00;;;;;;5118337;28;20739;-63
2023/01/14 05:50:37;;;;;;;13.90;4.30;;;6.00;1.00;;;;;;5117826;28;20544;-64
2023/01/14 05:53:05;;;;;;;16.33;4.23;;;6.00;1.00;;;;;;5117725;27;20445;-64
2023/01/14 05:55:32;;;;;;;18.17;4.43;;;6.00;1.00;;;;;;5118372;28;20439;-64
2023/01/14 05:58:02;;;;;;;13.17;3.93;;;6.00;1.00;;;;;;5117938;28;20459;-64
2023/01/14 06:08:45;;;;;;;14.27;3.80;;;5.90;1.00;;;;;;5136623;27;20404;-64
2023/01/14 06:11:12;;;;;;;14.33;4.63;;;5.90;1.00;;;;;;5136802;27;20497;-63
2023/01/14 06:13:41;;;;;;;21.83;4.97;;;5.90;1.00;;;;;;5124539;27;20851;-64
2023/01/14 06:16:09;;;;;;;18.20;4.23;;;5.90;1.00;;;;;;5114892;28;20541;-64
2023/01/14 06:18:41;;;;;;;14.20;4.20;;;5.90;1.00;;;;;;5117227;28;20466;-64
2023/01/14 06:21:10;;;;;;;13.13;4.40;;;5.90;1.00;;;;;;5135008;27;20459;-64
2023/01/14 06:23:38;;;;;;;11.90;4.00;;;5.90;1.00;;;;;;5137786;27;20526;-64
2023/01/14 06:26:10;;;;;;;12.90;3.83;;;5.80;1.00;;;;;;5138609;27;20461;-64
2023/01/14 06:28:38;;;;;;;12.37;4.60;;;5.80;1.00;;;;;;5138602;27;20462;-64
2023/01/14 06:31:11;;;;;;;12.30;3.97;;;5.80;1.00;;;;;;5124584;28;20795;-64
2023/01/14 06:33:39;;;;;;;18.43;5.27;;;5.80;1.00;;;;;;5117445;28;20555;-63
2023/01/14 06:36:07;;;;;;;14.50;3.77;;;5.90;1.00;;;;;;5116587;28;20459;-64
2023/01/14 06:38:34;;;;;;;14.80;4.20;;;5.90;1.00;;;;;;5115115;28;20434;-63
2023/01/14 06:41:02;;;;;;;9.30;3.53;;;5.90;1.00;;;;;;5123497;27;20522;-65
2023/01/14 06:43:30;;;;;;;14.40;4.43;;;5.90;1.00;;;;;;5140492;27;20492;-63
2023/01/14 06:45:57;;;;;;;13.40;3.73;;;5.90;1.00;;;;;;5140250;27;20741;-63
2023/01/14 06:48:27;;;;;;;10.93;4.30;;;6.00;1.00;;;;;;5138152;27;20727;-63
2023/01/14 06:50:54;;;;;;;11.43;3.77;;;6.00;1.00;;;;;;5140675;27;20673;-63
2023/01/14 06:53:22;;;;;;;12.50;3.97;;;6.00;1.00;;;;;;5139598;27;20461;-64
2023/01/14 06:55:49;;;;;;;11.60;4.03;;;6.10;1.00;;;;;;5140395;27;20440;-62
2023/01/14 06:58:17;;;;;;;19.07;4.00;;;6.10;1.00;;;;;;5140434;27;20458;-62
2023/01/14 07:00:44;;;;;;;8.63;3.60;;;6.20;1.00;;;;;;5140082;27;20450;-63
2023/01/14 07:03:11;;;;;;;14.97;4.73;;;6.20;1.00;;;;;;5140710;27;20463;-63
2023/01/14 07:05:40;;;;;;;14.10;4.43;;;6.20;1.00;;;;;;5140503;27;20439;-63
2023/01/14 07:08:07;;;;;;;9.33;3.40;;;6.20;1.00;;;;;;5141439;27;20436;-62
2023/01/14 07:10:35;;;;;;;17.17;3.50;;;6.20;1.00;;;;;;5141113;27;20437;-62
2023/01/14 07:13:02;;;;;;;9.00;3.93;;;6.30;1.00;;;;;;5140113;27;20465;-64
2023/01/14 07:15:29;;;;;;;15.80;3.73;;;6.30;1.00;;;;;;5139715;27;20437;-63
2023/01/14 07:17:56;;;;;;;12.90;5.03;;;6.30;1.00;;;;;;5140225;27;20458;-63
2023/01/14 07:20:23;;;;;;;20.00;3.70;;;6.20;1.00;;;;;;5140401;27;20459;-63
2023/01/14 07:22:52;;;;;;;21.50;4.20;;;6.20;1.00;;;;;;5139753;27;20461;-62
2023/01/14 07:25:19;;;;;;;12.40;3.33;;;6.20;1.00;;;;;;5139738;27;20469;-62
2023/01/14 07:27:46;;;;;;;13.77;3.90;;;6.10;1.00;;;;;;5140902;27;20549;-58
2023/01/14 07:30:14;;;;;;;16.37;4.60;;;6.10;1.00;;;;;;5140591;27;20518;-63
2023/01/14 07:32:41;;;;;;;15.77;4.60;;;6.00;61.30;;;;;;5141561;27;20493;-63
2023/01/14 07:35:09;;;;;;;12.20;3.50;;;6.00;99.90;;;;;;5141809;27;20755;-64
2023/01/14 07:37:36;;;;;;;12.50;3.40;;;6.00;99.90;;;;;;5141703;27;20450;-65
2023/01/14 07:40:06;;;;;;;14.07;4.80;;;6.00;99.90;;;;;;5141282;27;20970;-64
2023/01/14 07:42:33;;;;;;;18.53;3.67;;;5.90;99.90;;;;;;5142006;27;20872;-66
2023/01/14 07:45:01;;;;;;;12.23;3.67;;;6.00;1.00;;;;;;5141771;27;20755;-66
2023/01/14 07:47:28;;;;;;;15.40;3.60;;;5.90;1.00;;;;;;5141265;27;20540;-66
2023/01/14 07:49:55;;;;;;;10.20;3.70;;;5.80;1.00;;;;;;5141388;27;20477;-64
2023/01/14 07:52:22;;;;;;;10.40;3.83;;;5.90;99.90;;;;;;5141599;27;20483;-66
2023/01/14 07:54:50;;;;;;;22.50;4.60;;;5.80;1.00;;;;;;5140828;27;20462;-64
2023/01/14 07:57:19;;;;;;;16.50;6.37;;;5.80;1.00;;;;;;5141281;27;20459;-65
2023/01/14 07:59:46;;;;;;;20.63;6.80;;;5.80;1.00;;;;;;5141645;27;20455;-66
2023/01/14 08:02:13;;;;;;;14.43;5.40;;;5.80;17.30;;;;;;5141314;27;20454;-65
2023/01/14 08:04:40;;;;;;;15.87;5.77;;;5.70;52.40;;;;;;5141217;27;20459;-63
2023/01/14 08:07:09;;;;;;;12.13;4.40;;;5.70;21.80;;;;;;5141651;27;20455;-64
2023/01/14 08:09:36;;;;;;;18.63;5.80;;;5.70;99.90;;;;;;5141515;27;20553;-66
2023/01/14 08:12:03;;;;;;;16.70;4.83;;;5.70;1.00;;;;;;5140921;27;20482;-64
2023/01/14 08:14:32;;;;;;;14.50;4.57;;;5.70;1.00;;;;;;5140766;27;20763;-66
2023/01/14 08:17:02;;;;;;;11.40;4.40;;;5.60;1.00;;;;;;5141234;27;20438;-65
2023/01/14 08:19:30;;;;;;;16.13;4.37;;;5.60;19.30;;;;;;5141156;27;20458;-63
2023/01/14 08:21:57;;;;;;;23.67;5.00;;;5.60;99.90;;;;;;5141153;27;20482;-64
2023/01/14 08:24:24;;;;;;;12.10;4.90;;;5.60;99.90;;;;;;5141271;27;20458;-67
2023/01/14 08:26:51;;;;;;;12.73;4.37;;;5.60;99.90;;;;;;5140616;27;20433;-66
2023/01/14 08:29:18;;;;;;;12.93;3.70;;;5.70;99.90;;;;;;5140355;27;20459;-66
2023/01/14 08:31:51;;;;;;;15.23;3.83;;;5.70;99.90;;;;;;5140248;27;20555;-65
2023/01/14 08:34:18;;;;;;;12.93;4.27;;;5.70;99.90;;;;;;5140668;27;20463;-63
2023/01/14 08:36:45;;;;;;;11.30;3.93;;;5.70;99.90;;;;;;5140367;27;20463;-64
2023/01/14 08:39:12;;;;;;;17.23;4.33;;;5.70;99.90;;;;;;5140550;27;20459;-67
2023/01/14 08:41:39;;;;;;;16.07;5.60;;;5.60;99.90;;;;;;5139926;27;20461;-66
2023/01/14 08:44:07;;;;;;;20.93;6.20;;;5.70;99.90;;;;;;5140390;27;20881;-65
2023/01/14 08:46:34;;;;;;;14.87;3.80;;;5.70;99.90;;;;;;5140032;27;20441;-65
2023/01/14 08:49:02;;;;;;;9.77;3.87;;;5.70;99.90;;;;;;5140475;27;20459;-64
2023/01/14 08:51:30;;;;;;;11.53;4.10;;;5.70;99.90;;;;;;5140042;27;20489;-65
2023/01/14 08:54:00;;;;;;;15.10;5.43;;;5.70;99.90;;;;;;5141197;27;20437;-64
2023/01/14 08:56:28;;;;;;;15.27;4.67;;;5.80;99.90;;;;;;5140198;27;20455;-65
2023/01/14 08:58:55;;;;;;;11.17;3.53;;;5.90;99.90;;;;;;5140588;27;20462;-66
2023/01/14 09:01:22;;;;;;;18.93;8.03;;;5.90;99.90;;;;;;5140189;27;20430;-65
2023/01/14 09:03:52;;;;;;;9.67;4.60;;;5.90;99.90;;;;;;5139225;27;20463;-64
2023/01/14 09:06:21;;;;;;;18.83;7.83;;;6.00;99.90;;;;;;5138870;27;20458;-64
2023/01/14 09:17:10;;;;;;;17.73;6.10;;;6.00;99.90;;;;;;5137390;27;20409;-64
2023/01/14 09:19:41;;;;;;;16.60;8.20;;;6.10;99.90;;;;;;5138129;27;20887;-64
2023/01/14 09:22:12;;;;;;;21.97;10.00;;;6.10;91.40;;;;;;5127036;27;20468;-64
2023/01/14 09:24:39;;;;;;;17.57;7.27;;;6.10;23.30;;;;;;5116275;28;20466;-64
2023/01/14 09:27:06;;;;;;;19.03;5.60;;;6.10;1.00;;;;;;5116919;28;20455;-66
2023/01/14 09:29:33;;;;;;;21.07;7.67;;;6.20;1.00;;;;;;5117219;28;20910;-64
2023/01/14 09:32:00;;;;;;;17.60;7.17;;;6.20;1.00;;;;;;5122616;27;20487;-64
2023/01/14 09:34:28;;;;;;;18.40;8.30;;;6.20;1.00;;;;;;5133042;27;20421;-63
2023/01/14 09:36:56;;;;;;;18.73;7.73;;;6.30;1.00;;;;;;5137956;27;20758;-64
2023/01/14 09:39:24;;;;;;;19.70;9.17;;;6.20;1.00;;;;;;5118392;28;20441;-64
2023/01/14 09:41:54;;;;;;;16.57;6.50;;;6.30;1.00;;;;;;5117787;28;20456;-65
2023/01/14 09:44:23;;;;;;;21.60;9.80;;;6.30;1.00;;;;;;5118351;28;20434;-66
2023/01/14 09:46:51;;;;;;;10.83;4.93;;;6.30;1.00;;;;;;5123909;27;20455;-64
2023/01/14 09:49:21;;;;;;;13.30;5.63;;;6.30;99.90;;;;;;5138218;27;20447;-67
2023/01/14 09:52:05;;;;;;;13.60;5.60;;;6.40;99.90;;;;;;5138298;27;20956;-64
2023/01/14 09:54:44;;;;;;;10.23;4.50;;;6.40;99.90;;;;;;5135273;27;20779;-63
2023/01/14 09:57:17;;;;;;;11.80;6.50;;;6.50;99.90;;;;;;5136762;27;20429;-64
2023/01/14 09:59:54;;;;;;;14.43;4.57;;;6.50;1.00;;;;;;5138910;27;20481;-65
2023/01/14 10:02:26;;;;;;;11.67;3.43;;;6.50;1.00;;;;;;5136991;27;20458;-64
2023/01/14 10:05:15;;;;;;;14.50;6.70;;;6.60;99.90;;;;;;5118275;28;20890;-64
2023/01/14 10:07:42;;;;;;;11.70;4.63;;;6.60;99.90;;;;;;5118057;28;20885;-65
2023/01/14 10:10:23;;;;;;;8.23;3.50;;;6.70;1.00;;;;;;5117771;28;20458;-65
2023/01/14 10:12:53;;;;;;;6.77;2.90;;;6.70;99.90;;;;;;5117479;28;20520;-65
2023/01/14 10:15:35;;;;;;;7.00;4.03;;;6.80;99.90;;;;;;5117458;28;20463;-65
2023/01/14 10:18:12;;;;;;;9.93;3.03;;;6.80;99.90;;;;;;5118039;28;20524;-67
2023/01/14 10:20:50;;;;;;;15.50;4.20;;;6.90;99.90;;;;;;5117799;28;20463;-65
2023/01/14 10:23:19;;;;;;;10.73;2.90;;;6.90;99.90;;;;;;5117843;28;20455;-65
2023/01/14 10:25:49;;;;;;;9.90;3.30;;;6.80;1.00;;;;;;5117913;28;20763;-65
2023/01/14 10:28:22;;;;;;;8.47;2.90;;;6.90;99.90;;;;;;5123535;27;20451;-63
2023/01/14 10:30:51;;;;;;;8.80;3.30;;;6.90;1.00;;;;;;5135731;28;20475;-64
2023/01/14 10:33:19;;;;;;;8.93;3.30;;;6.90;1.00;;;;;;5135695;28;20486;-65
2023/01/14 10:35:52;;;;;;;4.33;2.73;;;6.90;1.00;;;;;;5135066;28;20745;-60
2023/01/14 10:38:23;;;;;;;6.30;2.80;;;6.90;99.90;;;;;;5131718;28;20918;-64
2023/01/14 10:40:55;;;;;;;9.63;3.00;;;6.90;1.00;;;;;;5132329;28;20447;-64
2023/01/14 10:43:31;;;;;;;5.20;2.70;;;6.80;99.90;;;;;;5133331;28;20447;-62
2023/01/14 10:45:59;;;;;;;13.17;3.70;;;6.80;1.00;;;;;;5133948;28;20519;-62
2023/01/14 10:48:28;;;;;;;5.17;2.30;;;6.80;99.90;;;;;;5135397;28;20462;-62
2023/01/14 10:50:55;;;;;;;6.33;2.70;;;6.80;99.90;;;;;;5135213;27;20857;-62
2023/01/14 10:53:23;;;;;;;7.47;2.67;;;6.80;99.90;;;;;;5134717;28;20486;-65
2023/01/14 10:55:55;;;;;;;6.17;2.73;;;6.80;99.90;;;;;;5132988;28;20466;-64
2023/01/14 10:58:30;;;;;;;6.53;2.70;;;6.90;99.90;;;;;;5135991;28;20458;-63
2023/01/14 11:01:06;;;;;;;4.43;2.43;;;6.90;99.90;;;;;;5135884;28;20462;-65
2023/01/14 11:03:36;;;;;;;7.57;2.33;;;6.90;99.90;;;;;;5136996;28;20737;-63
2023/01/14 11:06:06;;;;;;;4.73;2.70;;;6.80;99.90;;;;;;5138283;27;20507;-63
2023/01/14 11:08:37;;;;;;;5.23;2.30;;;6.90;99.90;;;;;;5138148;28;20780;-65
2023/01/14 11:11:08;;;;;;;5.33;2.63;;;6.90;99.90;;;;;;5138264;27;20469;-66
2023/01/14 11:13:41;;;;;;;8.23;2.87;;;6.90;99.90;;;;;;5138156;28;20913;-65
2023/01/14 11:16:29;;;;;;;5.90;3.47;;;6.90;99.90;;;;;;5137584;27;20472;-64
2023/01/14 11:18:58;;;;;;;5.67;2.80;;;6.90;99.90;;;;;;5138202;28;20556;-65
2023/01/14 11:21:27;;;;;;;4.17;2.50;;;6.90;99.90;;;;;;5138381;27;20466;-65
2023/01/14 11:23:57;;;;;;;4.13;2.30;;;6.90;99.90;;;;;;5137896;28;20430;-64
2023/01/14 11:26:29;;;;;;;5.30;2.70;;;6.90;99.90;;;;;;5136969;28;20470;-65
2023/01/14 11:29:05;;;;;;;7.63;3.00;;;6.90;99.90;;;;;;5136128;27;20474;-65
2023/01/14 11:31:35;;;;;;;4.67;2.73;;;7.00;99.90;;;;;;5131153;27;20922;-63
2023/01/14 11:34:03;;;;;;;5.17;2.90;;;7.00;99.90;;;;;;5140773;27;20545;-67
2023/01/14 11:36:33;;;;;;;7.20;3.33;;;7.00;99.90;;;;;;5136346;27;20460;-63
2023/01/14 11:39:02;;;;;;;6.50;2.40;;;7.00;99.90;;;;;;5137208;27;20512;-65
2023/01/14 11:41:33;;;;;;;5.17;2.27;;;7.00;99.90;;;;;;5133602;27;20447;-66
2023/01/14 11:44:02;;;;;;;6.40;3.30;;;7.00;99.90;;;;;;5137888;27;20875;-64
2023/01/14 11:46:30;;;;;;;5.33;2.80;;;7.00;99.90;;;;;;5139097;27;20461;-66
2023/01/14 11:49:04;;;;;;;6.47;3.10;;;7.10;99.90;;;;;;5138212;27;20791;-64
2023/01/14 11:51:33;;;;;;;4.33;2.67;;;7.10;99.90;;;;;;5141378;27;20769;-66
2023/01/14 11:54:04;;;;;;;3.50;2.10;;;7.10;99.90;;;;;;5121737;27;20556;-65
2023/01/14 11:56:35;;;;;;;4.57;2.30;;;7.20;99.90;;;;;;5118670;28;20440;-63
2023/01/14 11:59:14;;;;;;;6.67;2.50;;;7.20;99.90;;;;;;5123222;27;20781;-63
2023/01/14 12:01:46;;;;;;;4.97;2.60;;;7.20;99.90;;;;;;5128698;27;20454;-63
2023/01/14 12:04:18;;;;;;;7.93;4.83;;;7.30;99.90;;;;;;5137318;27;20437;-66
2023/01/14 12:06:49;;;;;;;21.60;12.63;;;7.30;99.90;;;;;;5138810;27;20982;-63
2023/01/14 12:09:22;;;;;;;8.90;4.60;;;7.30;99.90;;;;;;5139076;27;20430;-64
2023/01/14 12:12:01;;;;;;;7.20;4.00;;;7.30;99.90;;;;;;5141253;27;20515;-65
2023/01/14 12:17:28;;;;;;;14.97;6.47;;;7.40;99.90;;;;;;5136334;27;20910;-65
2023/01/14 12:20:00;;;;;;;14.07;6.40;;;7.40;99.90;;;;;;5138836;27;20553;-64
2023/01/14 12:22:32;;;;;;;6.50;2.97;;;7.40;99.90;;;;;;5137298;27;20455;-66
2023/01/14 12:25:20;;;;;;;13.20;7.10;;;7.40;99.90;;;;;;5138284;27;20454;-66
2023/01/14 12:27:58;;;;;;;7.17;4.60;;;7.50;99.90;;;;;;5137034;27;20469;-65
2023/01/14 12:30:47;;;;;;;5.90;3.50;;;7.50;99.90;;;;;;5135166;27;20516;-65
2023/01/14 12:33:21;;;;;;;10.13;5.50;;;7.50;99.90;;;;;;5135983;27;20486;-64
2023/01/14 12:35:52;;;;;;;9.50;6.20;;;7.50;99.90;;;;;;5130775;27;20429;-65
2023/01/14 12:46:45;;;;;;;4.83;3.50;;;7.60;99.90;;;;;;5126614;27;20451;-65
2023/01/14 12:49:12;;;;;;;9.50;3.60;;;7.70;99.90;;;;;;5119813;28;20538;-65
2023/01/14 12:51:42;;;;;;;3.57;2.97;;;7.70;99.90;;;;;;5136656;27;20809;-64
2023/01/14 12:54:19;;;;;;;4.60;2.60;;;7.70;99.90;;;;;;5137492;27;21080;-66
2023/01/14 12:56:53;;;;;;;5.57;3.40;;;7.70;99.90;;;;;;5136857;27;20462;-64
2023/01/14 12:59:28;;;;;;;5.50;2.10;;;7.70;99.90;;;;;;5138764;27;20737;-65
2023/01/14 13:01:59;;;;;;;3.03;2.33;;;7.80;99.90;;;;;;5138390;27;20458;-63
2023/01/14 13:04:29;;;;;;;3.57;2.13;;;7.80;99.90;;;;;;5138503;27;20466;-64
2023/01/14 13:06:59;;;;;;;3.23;2.33;;;7.80;99.90;;;;;;5131351;27;20749;-65
2023/01/14 13:09:30;;;;;;;3.47;2.10;;;7.80;99.90;;;;;;5117858;28;20485;-66
2023/01/14 13:11:58;;;;;;;5.47;2.73;;;7.80;99.90;;;;;;5117439;27;20503;-64
2023/01/14 13:14:35;;;;;;;3.60;2.10;;;7.80;99.90;;;;;;5117907;28;20499;-65
2023/01/14 13:17:07;;;;;;;2.33;1.70;;;7.80;99.90;;;;;;5121966;27;20542;-67
2023/01/14 13:19:50;;;;;;;2.97;1.93;;;7.90;99.90;;;;;;5139574;27;20459;-65
2023/01/14 13:22:45;;;;;;;3.17;1.90;;;7.80;99.90;;;;;;5139400;27;20463;-65
2023/01/14 13:25:32;;;;;;;5.67;1.90;;;7.90;99.90;;;;;;5139137;27;20463;-67
2023/01/14 13:28:00;;;;;;;3.00;1.37;;;7.90;99.90;;;;;;5131092;27;20460;-65
2023/01/14 13:30:43;;;;;;;2.60;1.90;;;7.90;99.90;;;;;;5117447;27;20883;-66
2023/01/14 13:33:23;;;;;;;2.47;1.80;;;7.90;99.90;;;;;;5118969;28;20491;-67
2023/01/14 13:36:17;;;;;;;2.90;1.70;;;7.90;99.90;;;;;;5118171;28;20467;-65
2023/01/14 13:38:58;;;;;;;2.97;1.90;;;7.90;99.90;;;;;;5128792;27;20892;-65
2023/01/14 13:41:39;;;;;;;2.57;1.70;;;7.90;99.90;;;;;;5138295;27;20465;-66
2023/01/14 13:44:17;;;;;;;6.23;1.50;;;7.90;99.90;;;;;;5119104;27;20455;-68
2023/01/14 13:46:50;;;;;;;4.23;1.80;;;7.90;99.90;;;;;;5118170;28;20513;-65
2023/01/14 13:49:30;;;;;;;2.83;2.00;;;8.00;99.90;;;;;;5129255;27;20465;-66
2023/01/14 13:52:02;;;;;;;5.20;2.83;;;8.00;99.90;;;;;;5137178;27;20466;-66